sensor_id;sensor_type;location;lat;lon;timestamp;pressure;altitude;pressure_sealevel;temperature;humidity
4617;BME280;2321;42.704;23.384;2022-07-22T00:02:03;95499.78;;;22.32;79.86
4617;BME280;2321;42.704;23.384;2022-07-22T00:04:30;95503.28;;;22.33;80.81
4617;BME280;2321;42.704;23.384;2022-07-22T00:06:57;95503.03;;;22.34;80.39
4617;BME280;2321;42.704;23.384;2022-07-22T00:09:24;95507.91;;;22.32;78.95
4617;BME280;2321;42.704;23.384;2022-07-22T00:11:51;95507.34;;;22.30;78.97
4617;BME280;2321;42.704;23.384;2022-07-22T00:14:19;95507.31;;;22.19;79.42
4617;BME280;2321;42.704;23.384;2022-07-22T00:16:46;95507.84;;;22.22;80.89
4617;BME280;2321;42.704;23.384;2022-07-22T00:19:13;95509.97;;;22.14;81.01
4617;BME280;2321;42.704;23.384;2022-07-22T00:21:40;95517.25;;;22.03;81.08
4617;BME280;2321;42.704;23.384;2022-07-22T00:24:07;95521.53;;;21.94;84.02
4617;BME280;2321;42.704;23.384;2022-07-22T00:26:34;95519.66;;;21.94;83.33
4617;BME280;2321;42.704;23.384;2022-07-22T00:29:01;95524.53;;;21.92;84.18
4617;BME280;2321;42.704;23.384;2022-07-22T00:31:29;95516.03;;;21.83;83.48
4617;BME280;2321;42.704;23.384;2022-07-22T00:33:58;95518.69;;;21.78;84.69
4617;BME280;2321;42.704;23.384;2022-07-22T00:36:26;95526.00;;;21.77;86.09
4617;BME280;2321;42.704;23.384;2022-07-22T00:38:53;95515.16;;;21.72;85.36
4617;BME280;2321;42.704;23.384;2022-07-22T00:41:20;95520.78;;;21.65;83.61
4617;BME280;2321;42.704;23.384;2022-07-22T00:43:52;95519.19;;;21.64;81.82
4617;BME280;2321;42.704;23.384;2022-07-22T00:46:20;95521.03;;;21.59;82.59
4617;BME280;2321;42.704;23.384;2022-07-22T00:48:48;95525.34;;;21.60;82.66
4617;BME280;2321;42.704;23.384;2022-07-22T00:51:16;95523.34;;;21.44;80.70
4617;BME280;2321;42.704;23.384;2022-07-22T00:53:44;95513.00;;;21.36;82.28
4617;BME280;2321;42.704;23.384;2022-07-22T00:56:11;95513.00;;;21.36;82.02
4617;BME280;2321;42.704;23.384;2022-07-22T00:58:38;95515.16;;;21.34;83.87
4617;BME280;2321;42.704;23.384;2022-07-22T01:01:05;95508.88;;;21.28;83.78
4617;BME280;2321;42.704;23.384;2022-07-22T01:03:32;95507.47;;;21.20;84.48
4617;BME280;2321;42.704;23.384;2022-07-22T01:06:01;95516.41;;;21.21;84.73
4617;BME280;2321;42.704;23.384;2022-07-22T01:08:28;95517.53;;;21.25;82.95
4617;BME280;2321;42.704;23.384;2022-07-22T01:11:06;95513.16;;;21.19;84.85
4617;BME280;2321;42.704;23.384;2022-07-22T01:13:32;95511.81;;;21.21;85.19
4617;BME280;2321;42.704;23.384;2022-07-22T01:16:00;95511.75;;;21.16;86.01
4617;BME280;2321;42.704;23.384;2022-07-22T01:18:26;95513.88;;;21.09;86.89
4617;BME280;2321;42.704;23.384;2022-07-22T01:20:55;95508.63;;;21.02;86.98
4617;BME280;2321;42.704;23.384;2022-07-22T01:23:22;95517.47;;;20.92;87.02
4617;BME280;2321;42.704;23.384;2022-07-22T01:25:49;95507.81;;;20.74;89.11
4617;BME280;2321;42.704;23.384;2022-07-22T01:28:16;95511.63;;;20.73;89.15
4617;BME280;2321;42.704;23.384;2022-07-22T01:30:43;95515.41;;;20.77;89.49
4617;BME280;2321;42.704;23.384;2022-07-22T01:33:09;95518.53;;;20.63;90.44
4617;BME280;2321;42.704;23.384;2022-07-22T01:35:36;95509.56;;;20.57;89.93
4617;BME280;2321;42.704;23.384;2022-07-22T01:38:06;95507.72;;;20.63;90.60
4617;BME280;2321;42.704;23.384;2022-07-22T01:40:33;95509.84;;;20.61;91.34
4617;BME280;2321;42.704;23.384;2022-07-22T01:43:00;95508.28;;;20.65;91.95
4617;BME280;2321;42.704;23.384;2022-07-22T01:45:27;95508.00;;;20.67;91.79
4617;BME280;2321;42.704;23.384;2022-07-22T01:47:54;95508.53;;;20.64;93.30
4617;BME280;2321;42.704;23.384;2022-07-22T01:50:21;95502.50;;;20.56;93.79
4617;BME280;2321;42.704;23.384;2022-07-22T01:52:48;95504.91;;;20.53;94.19
4617;BME280;2321;42.704;23.384;2022-07-22T01:55:16;95513.97;;;20.64;93.11
4617;BME280;2321;42.704;23.384;2022-07-22T01:57:43;95510.72;;;20.67;92.22
4617;BME280;2321;42.704;23.384;2022-07-22T02:00:11;95517.25;;;20.71;92.44
4617;BME280;2321;42.704;23.384;2022-07-22T02:02:38;95519.38;;;20.64;92.99
4617;BME280;2321;42.704;23.384;2022-07-22T02:05:06;95513.84;;;20.53;92.35
4617;BME280;2321;42.704;23.384;2022-07-22T02:07:33;95534.41;;;20.54;90.49
4617;BME280;2321;42.704;23.384;2022-07-22T02:10:00;95525.38;;;20.49;91.57
4617;BME280;2321;42.704;23.384;2022-07-22T02:12:29;95526.94;;;20.39;93.15
4617;BME280;2321;42.704;23.384;2022-07-22T02:14:55;95529.38;;;20.41;94.10
4617;BME280;2321;42.704;23.384;2022-07-22T02:17:22;95526.34;;;20.37;93.92
4617;BME280;2321;42.704;23.384;2022-07-22T02:19:49;95532.34;;;20.39;94.80
4617;BME280;2321;42.704;23.384;2022-07-22T02:22:16;95525.84;;;20.40;92.22
4617;BME280;2321;42.704;23.384;2022-07-22T02:24:43;95539.75;;;20.27;92.99
4617;BME280;2321;42.704;23.384;2022-07-22T02:27:10;95533.72;;;20.19;95.87
4617;BME280;2321;42.704;23.384;2022-07-22T02:29:39;95531.31;;;20.23;95.54
4617;BME280;2321;42.704;23.384;2022-07-22T02:32:06;95530.19;;;20.19;95.21
4617;BME280;2321;42.704;23.384;2022-07-22T02:34:33;95530.53;;;20.05;96.39
4617;BME280;2321;42.704;23.384;2022-07-22T02:36:59;95532.41;;;20.05;96.37
4617;BME280;2321;42.704;23.384;2022-07-22T02:39:26;95524.31;;;20.05;96.89
4617;BME280;2321;42.704;23.384;2022-07-22T02:41:53;95527.50;;;20.01;97.44
4617;BME280;2321;42.704;23.384;2022-07-22T02:44:20;95531.22;;;19.95;97.04
4617;BME280;2321;42.704;23.384;2022-07-22T02:46:48;95526.78;;;19.89;97.07
4617;BME280;2321;42.704;23.384;2022-07-22T02:49:15;95530.28;;;20.07;95.02
4617;BME280;2321;42.704;23.384;2022-07-22T02:51:42;95527.75;;;20.00;96.87
4617;BME280;2321;42.704;23.384;2022-07-22T02:54:09;95522.66;;;20.03;97.16
4617;BME280;2321;42.704;23.384;2022-07-22T02:56:36;95527.16;;;20.15;95.95
4617;BME280;2321;42.704;23.384;2022-07-22T02:59:03;95535.72;;;20.12;95.69
4617;BME280;2321;42.704;23.384;2022-07-22T03:01:30;95531.75;;;19.97;98.06
4617;BME280;2321;42.704;23.384;2022-07-22T03:03:58;95529.81;;;19.92;99.35
4617;BME280;2321;42.704;23.384;2022-07-22T03:06:25;95533.53;;;19.86;99.31
4617;BME280;2321;42.704;23.384;2022-07-22T03:08:52;95529.56;;;19.94;98.56
4617;BME280;2321;42.704;23.384;2022-07-22T03:11:19;95524.53;;;20.03;97.17
4617;BME280;2321;42.704;23.384;2022-07-22T03:13:46;95529.94;;;20.03;97.76
4617;BME280;2321;42.704;23.384;2022-07-22T03:16:13;95519.84;;;19.93;99.04
4617;BME280;2321;42.704;23.384;2022-07-22T03:18:39;95523.34;;;19.93;99.27
4617;BME280;2321;42.704;23.384;2022-07-22T03:21:08;95533.09;;;19.95;100.00
4617;BME280;2321;42.704;23.384;2022-07-22T03:23:35;95534.47;;;19.97;100.00
4617;BME280;2321;42.704;23.384;2022-07-22T03:26:02;95531.22;;;19.95;99.95
4617;BME280;2321;42.704;23.384;2022-07-22T03:28:29;95531.69;;;19.92;99.31
4617;BME280;2321;42.704;23.384;2022-07-22T03:30:56;95532.25;;;19.94;97.81
4617;BME280;2321;42.704;23.384;2022-07-22T03:33:22;95533.72;;;20.02;97.59
4617;BME280;2321;42.704;23.384;2022-07-22T03:35:49;95539.75;;;20.09;97.02
4617;BME280;2321;42.704;23.384;2022-07-22T03:38:18;95537.00;;;20.04;100.00
4617;BME280;2321;42.704;23.384;2022-07-22T03:40:44;95539.69;;;20.04;100.00
4617;BME280;2321;42.704;23.384;2022-07-22T03:43:11;95536.66;;;20.00;99.46
4617;BME280;2321;42.704;23.384;2022-07-22T03:45:38;95537.06;;;20.09;97.47
4617;BME280;2321;42.704;23.384;2022-07-22T03:48:05;95544.47;;;20.14;96.06
4617;BME280;2321;42.704;23.384;2022-07-22T03:50:32;95546.97;;;20.03;95.55
4617;BME280;2321;42.704;23.384;2022-07-22T03:52:59;95548.19;;;20.13;94.56
4617;BME280;2321;42.704;23.384;2022-07-22T03:55:27;95542.97;;;20.06;92.41
4617;BME280;2321;42.704;23.384;2022-07-22T03:57:54;95546.97;;;20.03;92.00
4617;BME280;2321;42.704;23.384;2022-07-22T04:00:21;95553.59;;;20.13;91.26
4617;BME280;2321;42.704;23.384;2022-07-22T04:02:48;95564.59;;;20.06;91.18
4617;BME280;2321;42.704;23.384;2022-07-22T04:05:15;95566.28;;;20.12;90.71
4617;BME280;2321;42.704;23.384;2022-07-22T04:07:42;95563.69;;;20.00;91.18
4617;BME280;2321;42.704;23.384;2022-07-22T04:10:09;95558.56;;;19.99;91.81
4617;BME280;2321;42.704;23.384;2022-07-22T04:12:38;95567.72;;;19.98;91.26
4617;BME280;2321;42.704;23.384;2022-07-22T04:15:08;95571.66;;;19.90;91.91
4617;BME280;2321;42.704;23.384;2022-07-22T04:17:35;95567.31;;;19.89;92.62
4617;BME280;2321;42.704;23.384;2022-07-22T04:20:03;95574.44;;;19.95;92.69
4617;BME280;2321;42.704;23.384;2022-07-22T04:22:30;95572.34;;;20.02;90.83
4617;BME280;2321;42.704;23.384;2022-07-22T04:24:57;95565.41;;;20.07;90.66
4617;BME280;2321;42.704;23.384;2022-07-22T04:27:24;95569.91;;;20.18;89.99
4617;BME280;2321;42.704;23.384;2022-07-22T04:29:52;95563.75;;;20.23;90.01
4617;BME280;2321;42.704;23.384;2022-07-22T04:32:19;95560.88;;;20.12;90.91
4617;BME280;2321;42.704;23.384;2022-07-22T04:34:47;95575.69;;;20.27;90.56
4617;BME280;2321;42.704;23.384;2022-07-22T04:37:13;95590.13;;;20.33;90.94
4617;BME280;2321;42.704;23.384;2022-07-22T04:39:40;95574.03;;;20.21;92.85
4617;BME280;2321;42.704;23.384;2022-07-22T04:42:07;95578.59;;;20.20;93.76
4617;BME280;2321;42.704;23.384;2022-07-22T04:44:34;95577.00;;;20.24;93.62
4617;BME280;2321;42.704;23.384;2022-07-22T04:47:02;95580.38;;;20.32;93.04
4617;BME280;2321;42.704;23.384;2022-07-22T04:49:29;95583.00;;;20.27;92.43
4617;BME280;2321;42.704;23.384;2022-07-22T04:51:56;95580.88;;;20.29;92.36
4617;BME280;2321;42.704;23.384;2022-07-22T04:54:23;95590.13;;;20.33;92.96
4617;BME280;2321;42.704;23.384;2022-07-22T04:56:50;95594.91;;;20.48;91.78
4617;BME280;2321;42.704;23.384;2022-07-22T04:59:17;95585.72;;;20.49;91.09
4617;BME280;2321;42.704;23.384;2022-07-22T05:01:44;95591.19;;;20.54;91.28
4617;BME280;2321;42.704;23.384;2022-07-22T05:04:12;95598.53;;;20.59;92.20
4617;BME280;2321;42.704;23.384;2022-07-22T05:06:39;95595.59;;;20.61;91.75
4617;BME280;2321;42.704;23.384;2022-07-22T05:09:06;95591.63;;;20.68;91.12
4617;BME280;2321;42.704;23.384;2022-07-22T05:11:33;95586.91;;;20.81;92.62
4617;BME280;2321;42.704;23.384;2022-07-22T05:14:00;95596.19;;;20.90;93.11
4617;BME280;2321;42.704;23.384;2022-07-22T05:16:27;95593.19;;;21.09;91.86
4617;BME280;2321;42.704;23.384;2022-07-22T05:18:54;95593.44;;;21.08;90.39
4617;BME280;2321;42.704;23.384;2022-07-22T05:21:22;95595.78;;;21.27;89.35
4617;BME280;2321;42.704;23.384;2022-07-22T05:23:49;95595.38;;;21.40;89.29
4617;BME280;2321;42.704;23.384;2022-07-22T05:26:16;95599.53;;;21.53;88.14
4617;BME280;2321;42.704;23.384;2022-07-22T05:28:43;95603.97;;;21.65;87.18
4617;BME280;2321;42.704;23.384;2022-07-22T05:31:10;95592.69;;;21.79;83.50
4617;BME280;2321;42.704;23.384;2022-07-22T05:33:36;95600.91;;;21.89;82.37
4617;BME280;2321;42.704;23.384;2022-07-22T05:36:04;95611.81;;;21.99;80.64
4617;BME280;2321;42.704;23.384;2022-07-22T05:38:33;95596.50;;;22.16;80.13
4617;BME280;2321;42.704;23.384;2022-07-22T05:41:00;95604.41;;;22.23;78.36
4617;BME280;2321;42.704;23.384;2022-07-22T05:43:27;95602.53;;;22.34;76.17
4617;BME280;2321;42.704;23.384;2022-07-22T05:45:54;95605.81;;;22.36;76.76
4617;BME280;2321;42.704;23.384;2022-07-22T05:48:21;95609.97;;;22.54;77.35
4617;BME280;2321;42.704;23.384;2022-07-22T05:50:48;95607.31;;;22.64;76.24
4617;BME280;2321;42.704;23.384;2022-07-22T05:53:15;95609.56;;;22.78;78.29
4617;BME280;2321;42.704;23.384;2022-07-22T05:55:43;95604.19;;;22.99;75.72
4617;BME280;2321;42.704;23.384;2022-07-22T05:58:10;95605.84;;;23.05;72.42
4617;BME280;2321;42.704;23.384;2022-07-22T06:00:37;95602.31;;;23.15;72.58
4617;BME280;2321;42.704;23.384;2022-07-22T06:03:05;95598.28;;;23.18;71.49
4617;BME280;2321;42.704;23.384;2022-07-22T06:05:33;95600.75;;;23.30;75.61
4617;BME280;2321;42.704;23.384;2022-07-22T06:08:01;95598.31;;;23.39;71.23
4617;BME280;2321;42.704;23.384;2022-07-22T06:10:27;95604.56;;;23.45;68.99
4617;BME280;2321;42.704;23.384;2022-07-22T06:12:56;95599.13;;;23.50;68.91
4617;BME280;2321;42.704;23.384;2022-07-22T06:15:23;95597.78;;;23.68;71.25
4617;BME280;2321;42.704;23.384;2022-07-22T06:17:50;95601.06;;;23.76;67.79
4617;BME280;2321;42.704;23.384;2022-07-22T06:20:17;95599.97;;;23.77;66.18
4617;BME280;2321;42.704;23.384;2022-07-22T06:22:43;95605.41;;;23.87;67.69
4617;BME280;2321;42.704;23.384;2022-07-22T06:25:10;95602.94;;;23.96;66.50
4617;BME280;2321;42.704;23.384;2022-07-22T06:27:37;95603.75;;;24.07;65.45
4617;BME280;2321;42.704;23.384;2022-07-22T06:30:07;95606.19;;;24.19;64.44
4617;BME280;2321;42.704;23.384;2022-07-22T06:32:34;95600.16;;;24.38;64.30
4617;BME280;2321;42.704;23.384;2022-07-22T06:35:02;95602.59;;;24.50;62.92
4617;BME280;2321;42.704;23.384;2022-07-22T06:37:29;95597.06;;;24.66;64.18
4617;BME280;2321;42.704;23.384;2022-07-22T06:39:56;95597.59;;;24.73;60.37
4617;BME280;2321;42.704;23.384;2022-07-22T06:42:23;95598.34;;;24.84;60.66
4617;BME280;2321;42.704;23.384;2022-07-22T06:44:51;95599.41;;;24.99;62.70
4617;BME280;2321;42.704;23.384;2022-07-22T06:47:19;95599.34;;;25.09;58.79
4617;BME280;2321;42.704;23.384;2022-07-22T06:49:46;95594.41;;;25.17;59.08
4617;BME280;2321;42.704;23.384;2022-07-22T06:52:13;95601.94;;;25.30;56.80
4617;BME280;2321;42.704;23.384;2022-07-22T06:54:40;95593.31;;;25.58;55.36
4617;BME280;2321;42.704;23.384;2022-07-22T06:57:06;95597.63;;;25.64;56.04
4617;BME280;2321;42.704;23.384;2022-07-22T06:59:33;95595.66;;;25.70;54.98
4617;BME280;2321;42.704;23.384;2022-07-22T07:02:00;95595.09;;;25.73;55.02
4617;BME280;2321;42.704;23.384;2022-07-22T07:04:29;95596.31;;;25.92;55.75
4617;BME280;2321;42.704;23.384;2022-07-22T07:06:56;95606.06;;;26.03;54.37
4617;BME280;2321;42.704;23.384;2022-07-22T07:09:23;95603.75;;;26.16;54.37
4617;BME280;2321;42.704;23.384;2022-07-22T07:11:49;95593.03;;;26.25;52.81
4617;BME280;2321;42.704;23.384;2022-07-22T07:14:16;95590.63;;;26.48;52.41
4617;BME280;2321;42.704;23.384;2022-07-22T07:16:43;95598.38;;;26.60;51.52
4617;BME280;2321;42.704;23.384;2022-07-22T07:19:10;95598.28;;;26.70;51.15
4617;BME280;2321;42.704;23.384;2022-07-22T07:21:38;95592.34;;;27.07;50.11
4617;BME280;2321;42.704;23.384;2022-07-22T07:24:06;95590.25;;;27.23;49.36
4617;BME280;2321;42.704;23.384;2022-07-22T07:26:33;95587.94;;;27.30;48.57
4617;BME280;2321;42.704;23.384;2022-07-22T07:29:00;95598.28;;;27.53;49.50
4617;BME280;2321;42.704;23.384;2022-07-22T07:31:26;95600.16;;;27.72;47.12
4617;BME280;2321;42.704;23.384;2022-07-22T07:33:53;95606.34;;;27.78;48.35
4617;BME280;2321;42.704;23.384;2022-07-22T07:36:20;95595.31;;;28.02;45.58
4617;BME280;2321;42.704;23.384;2022-07-22T07:38:49;95599.56;;;28.09;45.54
4617;BME280;2321;42.704;23.384;2022-07-22T07:41:16;95596.13;;;28.17;46.78
4617;BME280;2321;42.704;23.384;2022-07-22T07:43:43;95597.47;;;28.34;44.46
4617;BME280;2321;42.704;23.384;2022-07-22T07:46:10;95596.06;;;28.36;45.10
4617;BME280;2321;42.704;23.384;2022-07-22T07:48:37;95597.00;;;28.46;44.13
4617;BME280;2321;42.704;23.384;2022-07-22T07:51:05;95591.31;;;28.56;43.76
4617;BME280;2321;42.704;23.384;2022-07-22T07:53:32;95603.50;;;28.64;42.92
4617;BME280;2321;42.704;23.384;2022-07-22T07:56:01;95592.03;;;28.62;43.77
4617;BME280;2321;42.704;23.384;2022-07-22T07:58:27;95593.44;;;28.74;44.10
4617;BME280;2321;42.704;23.384;2022-07-22T08:00:54;95593.53;;;28.97;43.75
4617;BME280;2321;42.704;23.384;2022-07-22T08:03:21;95597.03;;;29.11;43.06
4617;BME280;2321;42.704;23.384;2022-07-22T08:05:49;95586.19;;;29.20;43.44
4617;BME280;2321;42.704;23.384;2022-07-22T08:08:16;95583.91;;;29.36;42.17
4617;BME280;2321;42.704;23.384;2022-07-22T08:10:43;95594.94;;;29.45;42.70
4617;BME280;2321;42.704;23.384;2022-07-22T08:13:11;95588.53;;;29.50;41.94
4617;BME280;2321;42.704;23.384;2022-07-22T08:15:38;95587.25;;;29.56;41.57
4617;BME280;2321;42.704;23.384;2022-07-22T08:18:05;95591.50;;;29.63;41.25
4617;BME280;2321;42.704;23.384;2022-07-22T08:20:32;95588.94;;;29.80;40.27
4617;BME280;2321;42.704;23.384;2022-07-22T08:22:59;95594.09;;;29.82;39.46
4617;BME280;2321;42.704;23.384;2022-07-22T08:25:26;95589.97;;;29.94;39.65
4617;BME280;2321;42.704;23.384;2022-07-22T08:27:53;95587.78;;;30.05;40.06
4617;BME280;2321;42.704;23.384;2022-07-22T08:30:22;95583.81;;;30.20;38.82
4617;BME280;2321;42.704;23.384;2022-07-22T08:32:52;95591.94;;;30.34;37.93
4617;BME280;2321;42.704;23.384;2022-07-22T08:35:19;95593.94;;;30.42;39.08
4617;BME280;2321;42.704;23.384;2022-07-22T08:37:46;95594.66;;;30.57;38.51
4617;BME280;2321;42.704;23.384;2022-07-22T08:40:15;95593.06;;;30.74;36.98
4617;BME280;2321;42.704;23.384;2022-07-22T08:42:43;95590.81;;;30.76;36.60
4617;BME280;2321;42.704;23.384;2022-07-22T08:45:11;95593.44;;;30.90;37.18
4617;BME280;2321;42.704;23.384;2022-07-22T08:47:39;95593.09;;;30.92;36.68
4617;BME280;2321;42.704;23.384;2022-07-22T08:50:07;95589.25;;;30.93;37.28
4617;BME280;2321;42.704;23.384;2022-07-22T08:52:34;95588.28;;;30.97;36.60
4617;BME280;2321;42.704;23.384;2022-07-22T08:55:02;95598.53;;;31.15;36.77
4617;BME280;2321;42.704;23.384;2022-07-22T08:57:29;95587.38;;;31.20;37.19
4617;BME280;2321;42.704;23.384;2022-07-22T08:59:58;95598.38;;;31.38;36.56
4617;BME280;2321;42.704;23.384;2022-07-22T09:02:25;95607.44;;;31.47;36.39
4617;BME280;2321;42.704;23.384;2022-07-22T09:04:56;95600.19;;;31.60;35.96
4617;BME280;2321;42.704;23.384;2022-07-22T09:07:26;95586.41;;;31.69;35.77
4617;BME280;2321;42.704;23.384;2022-07-22T09:09:53;95593.38;;;31.75;35.68
4617;BME280;2321;42.704;23.384;2022-07-22T09:12:20;95598.41;;;31.64;35.52
4617;BME280;2321;42.704;23.384;2022-07-22T09:14:49;95598.25;;;31.61;34.61
4617;BME280;2321;42.704;23.384;2022-07-22T09:17:23;95596.59;;;31.78;34.77
4617;BME280;2321;42.704;23.384;2022-07-22T09:19:51;95594.31;;;31.89;36.70
4617;BME280;2321;42.704;23.384;2022-07-22T09:22:35;95598.50;;;32.04;35.05
4617;BME280;2321;42.704;23.384;2022-07-22T09:25:23;95600.25;;;32.17;34.60
4617;BME280;2321;42.704;23.384;2022-07-22T09:27:53;95607.34;;;32.27;33.91
4617;BME280;2321;42.704;23.384;2022-07-22T09:30:23;95596.72;;;32.17;34.56
4617;BME280;2321;42.704;23.384;2022-07-22T09:32:51;95597.16;;;32.28;35.18
4617;BME280;2321;42.704;23.384;2022-07-22T09:35:18;95591.25;;;32.47;34.89
4617;BME280;2321;42.704;23.384;2022-07-22T09:37:56;95598.47;;;32.61;34.49
4617;BME280;2321;42.704;23.384;2022-07-22T09:40:25;95592.28;;;32.73;33.99
4617;BME280;2321;42.704;23.384;2022-07-22T09:42:55;95592.56;;;32.80;32.81
4617;BME280;2321;42.704;23.384;2022-07-22T09:45:24;95589.72;;;32.98;33.11
4617;BME280;2321;42.704;23.384;2022-07-22T09:47:53;95587.22;;;33.05;34.14
4617;BME280;2321;42.704;23.384;2022-07-22T09:50:22;95590.59;;;33.11;32.61
4617;BME280;2321;42.704;23.384;2022-07-22T09:52:51;95578.91;;;33.14;33.19
4617;BME280;2321;42.704;23.384;2022-07-22T09:55:21;95575.66;;;33.12;33.32
4617;BME280;2321;42.704;23.384;2022-07-22T09:57:48;95588.19;;;33.31;32.14
4617;BME280;2321;42.704;23.384;2022-07-22T10:00:18;95578.13;;;33.35;32.23
4617;BME280;2321;42.704;23.384;2022-07-22T10:02:47;95572.31;;;33.28;32.85
4617;BME280;2321;42.704;23.384;2022-07-22T10:05:15;95582.34;;;33.33;32.49
4617;BME280;2321;42.704;23.384;2022-07-22T10:07:43;95577.31;;;33.35;32.51
4617;BME280;2321;42.704;23.384;2022-07-22T10:10:12;95576.78;;;33.42;31.66
4617;BME280;2321;42.704;23.384;2022-07-22T10:12:41;95576.00;;;33.54;32.17
4617;BME280;2321;42.704;23.384;2022-07-22T10:15:09;95559.91;;;33.56;31.94
4617;BME280;2321;42.704;23.384;2022-07-22T10:17:38;95558.56;;;33.62;32.43
4617;BME280;2321;42.704;23.384;2022-07-22T10:20:06;95566.56;;;33.76;32.47
4617;BME280;2321;42.704;23.384;2022-07-22T10:22:48;95570.00;;;33.73;30.99
4617;BME280;2321;42.704;23.384;2022-07-22T10:25:16;95561.31;;;33.84;30.64
4617;BME280;2321;42.704;23.384;2022-07-22T10:27:47;95557.03;;;33.86;31.25
4617;BME280;2321;42.704;23.384;2022-07-22T10:30:16;95566.41;;;33.94;31.01
4617;BME280;2321;42.704;23.384;2022-07-22T10:32:43;95561.59;;;34.03;30.95
4617;BME280;2321;42.704;23.384;2022-07-22T10:35:23;95556.41;;;34.14;30.50
4617;BME280;2321;42.704;23.384;2022-07-22T10:38:03;95556.31;;;34.23;30.42
4617;BME280;2321;42.704;23.384;2022-07-22T10:40:32;95558.06;;;34.28;30.13
4617;BME280;2321;42.704;23.384;2022-07-22T10:43:14;95553.69;;;34.27;30.14
4617;BME280;2321;42.704;23.384;2022-07-22T10:45:45;95555.03;;;34.21;30.12
4617;BME280;2321;42.704;23.384;2022-07-22T10:48:14;95559.84;;;33.99;29.58
4617;BME280;2321;42.704;23.384;2022-07-22T10:50:50;95551.81;;;34.06;29.92
4617;BME280;2321;42.704;23.384;2022-07-22T10:53:20;95550.22;;;34.18;30.80
4617;BME280;2321;42.704;23.384;2022-07-22T10:56:18;95550.50;;;34.38;30.44
4617;BME280;2321;42.704;23.384;2022-07-22T10:58:51;95554.97;;;34.55;30.53
4617;BME280;2321;42.704;23.384;2022-07-22T11:01:21;95553.47;;;34.70;30.03
4617;BME280;2321;42.704;23.384;2022-07-22T11:03:49;95547.00;;;34.66;28.65
4617;BME280;2321;42.704;23.384;2022-07-22T11:06:28;95545.63;;;34.60;28.70
4617;BME280;2321;42.704;23.384;2022-07-22T11:08:56;95550.72;;;34.70;28.87
4617;BME280;2321;42.704;23.384;2022-07-22T11:11:42;95542.28;;;34.79;29.41
4617;BME280;2321;42.704;23.384;2022-07-22T11:14:16;95540.09;;;34.97;30.47
4617;BME280;2321;42.704;23.384;2022-07-22T11:16:45;95534.31;;;35.03;28.35
4617;BME280;2321;42.704;23.384;2022-07-22T11:19:13;95537.56;;;35.05;29.02
4617;BME280;2321;42.704;23.384;2022-07-22T11:21:40;95542.59;;;35.03;29.23
4617;BME280;2321;42.704;23.384;2022-07-22T11:24:07;95532.69;;;35.14;28.52
4617;BME280;2321;42.704;23.384;2022-07-22T11:26:39;95539.81;;;35.15;28.97
4617;BME280;2321;42.704;23.384;2022-07-22T11:29:07;95541.22;;;35.09;28.94
4617;BME280;2321;42.704;23.384;2022-07-22T11:31:36;95537.41;;;35.14;29.17
4617;BME280;2321;42.704;23.384;2022-07-22T11:34:08;95535.88;;;35.29;29.46
4617;BME280;2321;42.704;23.384;2022-07-22T11:36:36;95542.28;;;35.33;29.34
4617;BME280;2321;42.704;23.384;2022-07-22T11:39:04;95533.53;;;35.31;27.86
4617;BME280;2321;42.704;23.384;2022-07-22T11:41:31;95540.13;;;35.26;27.56
4617;BME280;2321;42.704;23.384;2022-07-22T11:43:59;95538.31;;;35.18;28.46
4617;BME280;2321;42.704;23.384;2022-07-22T11:46:27;95539.69;;;35.11;28.12
4617;BME280;2321;42.704;23.384;2022-07-22T11:48:55;95534.16;;;35.11;29.12
4617;BME280;2321;42.704;23.384;2022-07-22T11:51:29;95535.31;;;35.23;28.88
4617;BME280;2321;42.704;23.384;2022-07-22T11:53:57;95526.47;;;35.17;28.48
4617;BME280;2321;42.704;23.384;2022-07-22T11:56:24;95531.91;;;35.30;29.49
4617;BME280;2321;42.704;23.384;2022-07-22T11:58:52;95534.44;;;35.48;28.72
4617;BME280;2321;42.704;23.384;2022-07-22T12:01:23;95537.16;;;35.60;29.09
4617;BME280;2321;42.704;23.384;2022-07-22T12:03:51;95541.50;;;35.61;27.95
4617;BME280;2321;42.704;23.384;2022-07-22T12:06:21;95525.16;;;35.56;28.35
4617;BME280;2321;42.704;23.384;2022-07-22T12:08:50;95516.44;;;35.70;28.55
4617;BME280;2321;42.704;23.384;2022-07-22T12:11:20;95523.09;;;35.82;29.07
4617;BME280;2321;42.704;23.384;2022-07-22T12:13:49;95520.22;;;35.78;27.94
4617;BME280;2321;42.704;23.384;2022-07-22T12:16:18;95521.91;;;35.83;28.07
4617;BME280;2321;42.704;23.384;2022-07-22T12:18:51;95519.84;;;35.80;27.54
4617;BME280;2321;42.704;23.384;2022-07-22T12:21:20;95506.72;;;35.76;27.09
4617;BME280;2321;42.704;23.384;2022-07-22T12:23:57;95514.69;;;35.78;27.36
4617;BME280;2321;42.704;23.384;2022-07-22T12:26:43;95515.00;;;35.60;27.16
4617;BME280;2321;42.704;23.384;2022-07-22T12:29:18;95514.53;;;35.58;26.74
4617;BME280;2321;42.704;23.384;2022-07-22T12:31:47;95507.75;;;35.56;27.32
4617;BME280;2321;42.704;23.384;2022-07-22T12:34:14;95514.81;;;35.53;26.96
4617;BME280;2321;42.704;23.384;2022-07-22T12:36:47;95511.59;;;35.51;26.84
4617;BME280;2321;42.704;23.384;2022-07-22T12:39:15;95514.69;;;35.49;26.62
4617;BME280;2321;42.704;23.384;2022-07-22T12:41:47;95507.84;;;35.59;26.45
4617;BME280;2321;42.704;23.384;2022-07-22T12:44:19;95493.50;;;35.70;26.78
4617;BME280;2321;42.704;23.384;2022-07-22T12:46:49;95512.50;;;35.71;26.67
4617;BME280;2321;42.704;23.384;2022-07-22T12:49:17;95508.22;;;35.74;25.97
4617;BME280;2321;42.704;23.384;2022-07-22T12:52:12;95503.69;;;35.82;26.10
4617;BME280;2321;42.704;23.384;2022-07-22T12:54:40;95503.28;;;35.96;26.45
4617;BME280;2321;42.704;23.384;2022-07-22T12:57:08;95505.88;;;36.05;25.98
4617;BME280;2321;42.704;23.384;2022-07-22T12:59:36;95505.88;;;36.05;25.74
4617;BME280;2321;42.704;23.384;2022-07-22T13:02:03;95505.50;;;36.23;26.13
4617;BME280;2321;42.704;23.384;2022-07-22T13:04:30;95500.97;;;36.30;26.55
4617;BME280;2321;42.704;23.384;2022-07-22T13:06:57;95502.53;;;36.32;25.31
4617;BME280;2321;42.704;23.384;2022-07-22T13:09:25;95512.66;;;36.40;25.39
4617;BME280;2321;42.704;23.384;2022-07-22T13:11:52;95510.53;;;36.49;25.91
4617;BME280;2321;42.704;23.384;2022-07-22T13:14:19;95513.66;;;36.48;24.76
4617;BME280;2321;42.704;23.384;2022-07-22T13:16:46;95509.16;;;36.43;24.52